createdAt,value
2018-06-21T00:01:08.898Z,21.80
2018-06-21T00:03:37.085Z,21.80
2018-06-21T00:06:05.258Z,21.80
2018-06-21T00:08:33.426Z,21.80
2018-06-21T00:11:01.609Z,21.70
2018-06-21T00:13:29.774Z,21.70
2018-06-21T00:15:57.968Z,21.70
2018-06-21T00:18:26.263Z,21.70
2018-06-21T00:20:54.384Z,21.60
2018-06-21T00:23:22.586Z,21.60
2018-06-21T00:25:50.766Z,21.60
2018-06-21T00:28:19.008Z,21.60
2018-06-21T00:30:47.241Z,21.60
2018-06-21T00:33:15.426Z,21.50
2018-06-21T00:35:43.610Z,21.50
2018-06-21T00:38:11.777Z,21.50
2018-06-21T00:40:39.971Z,21.50
2018-06-21T00:43:08.126Z,21.40
2018-06-21T00:45:36.305Z,21.40
2018-06-21T00:48:04.473Z,21.40
2018-06-21T00:50:32.642Z,21.40
2018-06-21T00:53:00.830Z,21.30
2018-06-21T00:58:02.562Z,21.30
2018-06-21T01:00:30.930Z,21.30
2018-06-21T01:02:59.081Z,21.20
2018-06-21T01:05:27.265Z,21.30
2018-06-21T01:07:55.426Z,21.20
2018-06-21T01:10:23.569Z,21.30
2018-06-21T01:12:51.753Z,21.20
2018-06-21T01:15:19.926Z,21.20
2018-06-21T01:17:48.106Z,21.20
2018-06-21T01:20:16.282Z,21.20
2018-06-21T01:22:44.439Z,21.20
2018-06-21T01:25:12.621Z,21.20
2018-06-21T01:27:40.880Z,21.20
2018-06-21T01:30:09.052Z,21.20
2018-06-21T01:32:37.219Z,21.20
2018-06-21T01:35:05.802Z,21.20
2018-06-21T01:37:33.981Z,21.20
2018-06-21T01:40:02.161Z,21.20
2018-06-21T01:42:30.338Z,21.10
2018-06-21T01:44:58.522Z,21.10
2018-06-21T01:47:26.713Z,21.10
2018-06-21T01:49:54.888Z,21.10
2018-06-21T01:52:23.254Z,21.10
2018-06-21T01:54:51.430Z,21.10
2018-06-21T01:57:19.629Z,21.10
2018-06-21T01:59:47.821Z,21.10
2018-06-21T02:02:16.018Z,21.00
2018-06-21T02:04:44.178Z,21.00
2018-06-21T02:07:12.381Z,21.00
2018-06-21T02:09:40.566Z,21.00
2018-06-21T02:12:08.733Z,21.00
2018-06-21T02:14:36.919Z,21.00
2018-06-21T02:17:05.075Z,21.00
2018-06-21T02:19:33.258Z,20.90
2018-06-21T02:22:01.418Z,20.90
2018-06-21T02:24:29.627Z,20.90
2018-06-21T02:26:57.778Z,20.90
2018-06-21T02:29:25.944Z,20.90
2018-06-21T02:31:54.102Z,20.90
2018-06-21T02:34:22.333Z,20.80
2018-06-21T02:36:50.434Z,20.80
2018-06-21T02:39:18.605Z,20.80
2018-06-21T02:41:46.778Z,20.80
2018-06-21T02:44:14.949Z,20.80
2018-06-21T02:46:43.122Z,20.80
2018-06-21T02:49:11.299Z,20.80
2018-06-21T02:51:39.457Z,20.80
2018-06-21T02:54:07.630Z,20.80
2018-06-21T02:56:35.818Z,20.70
2018-06-21T02:59:04.006Z,20.70
2018-06-21T03:01:32.186Z,20.70
2018-06-21T03:04:00.520Z,20.70
2018-06-21T03:06:28.645Z,20.70
2018-06-21T03:08:56.810Z,20.70
2018-06-21T03:11:24.957Z,20.70
2018-06-21T03:13:53.114Z,20.60
2018-06-21T03:16:21.290Z,20.60
2018-06-21T03:18:49.458Z,20.60
2018-06-21T03:21:17.633Z,20.60
2018-06-21T03:23:45.806Z,20.60
2018-06-21T03:26:13.984Z,20.60
2018-06-21T03:28:42.165Z,20.60
2018-06-21T03:31:10.325Z,20.60
2018-06-21T03:33:38.501Z,20.60
2018-06-21T03:36:06.731Z,20.60
2018-06-21T03:38:35.032Z,20.50
2018-06-21T03:41:03.256Z,20.50
2018-06-21T03:43:31.430Z,20.50
2018-06-21T03:45:59.602Z,20.50
2018-06-21T03:48:27.797Z,20.50
2018-06-21T03:50:55.966Z,20.50
2018-06-21T03:53:24.141Z,20.50
2018-06-21T03:55:52.329Z,20.50
2018-06-21T03:58:20.490Z,20.50
2018-06-21T04:00:48.653Z,20.50
2018-06-21T04:03:16.837Z,20.50
2018-06-21T04:05:45.015Z,20.50
2018-06-21T04:08:13.177Z,20.50
2018-06-21T04:10:41.397Z,20.50
2018-06-21T04:13:09.592Z,20.50
2018-06-21T04:15:37.780Z,20.50
2018-06-21T04:18:05.959Z,20.60
2018-06-21T04:20:34.372Z,20.60
2018-06-21T04:23:02.529Z,20.60
2018-06-21T04:25:30.770Z,20.60
2018-06-21T04:27:58.937Z,20.60
2018-06-21T04:30:27.115Z,20.60
2018-06-21T04:32:55.409Z,20.60
2018-06-21T04:35:23.662Z,20.60
2018-06-21T04:37:51.864Z,20.60
2018-06-21T04:40:20.033Z,20.60
2018-06-21T04:42:48.221Z,20.70
2018-06-21T04:45:16.418Z,20.70
2018-06-21T04:47:44.626Z,20.70
2018-06-21T04:50:12.805Z,20.70
2018-06-21T04:52:41.216Z,20.70
2018-06-21T04:55:09.398Z,20.70
2018-06-21T04:57:37.562Z,20.70
2018-06-21T05:00:05.776Z,20.70
2018-06-21T05:02:34.124Z,20.70
2018-06-21T05:05:02.328Z,20.70
2018-06-21T05:07:30.525Z,20.70
2018-06-21T05:09:59.322Z,20.70
2018-06-21T05:12:27.558Z,20.70
2018-06-21T05:14:55.771Z,20.70
2018-06-21T05:17:23.958Z,20.70
2018-06-21T05:19:52.151Z,20.70
2018-06-21T05:22:20.401Z,20.80
2018-06-21T05:24:48.598Z,20.70
2018-06-21T05:27:16.813Z,20.70
2018-06-21T05:29:45.026Z,20.80
2018-06-21T05:32:13.322Z,20.80
2018-06-21T05:34:41.761Z,20.80
2018-06-21T05:37:09.949Z,20.80
2018-06-21T05:39:38.125Z,20.80
2018-06-21T05:42:06.297Z,20.70
2018-06-21T05:44:34.558Z,20.70
2018-06-21T05:47:02.824Z,20.70
2018-06-21T05:49:31.067Z,20.70
2018-06-21T05:51:59.233Z,20.70
2018-06-21T05:54:27.491Z,20.70
2018-06-21T05:56:55.670Z,20.70
2018-06-21T05:59:23.838Z,20.60
2018-06-21T06:01:52.058Z,20.60
2018-06-21T06:04:20.197Z,20.60
2018-06-21T06:06:48.353Z,20.60
2018-06-21T06:09:16.529Z,20.50
2018-06-21T06:11:44.761Z,20.50
2018-06-21T06:14:13.049Z,20.50
2018-06-21T06:16:41.102Z,20.40
2018-06-21T06:19:09.282Z,20.40
2018-06-21T06:21:37.458Z,20.40
2018-06-21T06:24:05.646Z,20.30
2018-06-21T06:26:33.835Z,20.30
2018-06-21T06:29:02.007Z,20.30
2018-06-21T06:31:30.169Z,20.30
2018-06-21T06:33:58.342Z,20.20
2018-06-21T06:36:26.508Z,20.20
2018-06-21T06:38:54.705Z,20.20
2018-06-21T06:41:23.041Z,20.10
2018-06-21T06:43:51.211Z,20.10
2018-06-21T06:46:19.398Z,20.00
2018-06-21T06:48:47.548Z,19.90
2018-06-21T06:51:15.692Z,19.90
2018-06-21T06:53:43.857Z,19.90
2018-06-21T06:56:12.122Z,19.80
2018-06-21T06:58:40.285Z,19.80
2018-06-21T07:01:08.709Z,19.80
2018-06-21T07:03:36.886Z,19.80
2018-06-21T07:06:05.138Z,19.80
2018-06-21T07:08:33.418Z,19.70
2018-06-21T07:11:01.497Z,19.70
2018-06-21T07:13:29.678Z,19.80
2018-06-21T07:15:57.862Z,19.70
2018-06-21T07:18:26.018Z,19.70
2018-06-21T07:20:54.276Z,19.70
2018-06-21T07:23:22.457Z,19.60
2018-06-21T07:25:50.973Z,19.60
2018-06-21T07:28:19.153Z,19.60
2018-06-21T07:30:47.563Z,19.50
2018-06-21T07:33:15.725Z,19.60
2018-06-21T07:35:43.921Z,19.50
2018-06-21T07:38:13.175Z,19.40
2018-06-21T07:43:09.365Z,19.40
2018-06-21T07:45:37.562Z,19.30
2018-06-21T07:48:05.729Z,19.30
2018-06-21T07:50:33.890Z,19.40
2018-06-21T07:53:02.129Z,19.30
2018-06-21T07:55:30.367Z,19.30
2018-06-21T07:57:58.556Z,19.20
2018-06-21T08:00:26.721Z,19.20
2018-06-21T08:02:54.894Z,19.20
2018-06-21T08:05:23.781Z,19.20
2018-06-21T08:07:51.933Z,19.20
2018-06-21T08:10:20.095Z,19.20
2018-06-21T08:12:48.303Z,19.20
2018-06-21T08:15:16.464Z,19.20
2018-06-21T08:17:44.637Z,19.20
2018-06-21T08:20:12.851Z,19.20
2018-06-21T08:22:41.057Z,19.20
2018-06-21T08:25:09.229Z,19.20
2018-06-21T08:27:37.383Z,19.30
2018-06-21T08:30:05.689Z,19.30
2018-06-21T08:32:33.915Z,19.30
2018-06-21T08:35:02.090Z,19.20
2018-06-21T08:37:30.273Z,19.20
2018-06-21T08:39:58.459Z,19.20
2018-06-21T08:42:26.658Z,19.20
2018-06-21T08:44:54.829Z,19.30
2018-06-21T08:47:23.479Z,19.30
2018-06-21T08:49:51.682Z,19.30
2018-06-21T08:52:19.837Z,19.30
2018-06-21T08:54:48.045Z,19.30
2018-06-21T08:57:16.201Z,19.40
2018-06-21T08:59:44.379Z,19.40
2018-06-21T09:02:12.522Z,19.40
2018-06-21T09:04:40.689Z,19.40
2018-06-21T09:07:08.865Z,19.40
2018-06-21T09:12:04.957Z,19.50
2018-06-21T09:14:33.199Z,19.50
2018-06-21T09:17:01.473Z,19.50
2018-06-21T09:19:29.645Z,19.50
2018-06-21T09:21:57.805Z,19.50
2018-06-21T09:24:25.995Z,19.50
2018-06-21T09:26:54.205Z,19.60
2018-06-21T09:29:22.585Z,19.50
2018-06-21T09:31:50.763Z,19.50
2018-06-21T09:34:19.173Z,19.40
2018-06-21T09:36:47.385Z,19.30
2018-06-21T09:39:21.047Z,19.20
2018-06-21T09:41:54.831Z,19.10
2018-06-21T09:44:28.365Z,19.10
2018-06-21T09:47:02.090Z,19.10
2018-06-21T09:49:31.481Z,19.10
2018-06-21T09:52:01.989Z,19.20
2018-06-21T09:54:30.573Z,19.20
2018-06-21T09:59:27.333Z,19.30
2018-06-21T10:01:55.629Z,19.40
2018-06-21T10:04:23.790Z,19.40
2018-06-21T10:06:51.940Z,19.50
2018-06-21T10:09:20.123Z,19.50
2018-06-21T10:11:48.500Z,19.50
2018-06-21T10:14:16.666Z,19.50
2018-06-21T10:16:44.825Z,19.50
2018-06-21T10:19:12.976Z,19.40
2018-06-21T10:21:41.131Z,19.40
2018-06-21T10:24:09.277Z,19.40
2018-06-21T10:26:37.441Z,19.40
2018-06-21T10:29:05.640Z,19.40
2018-06-21T10:31:33.793Z,19.40
2018-06-21T10:34:01.955Z,19.40
2018-06-21T10:36:30.113Z,19.40
2018-06-21T10:38:58.289Z,19.50
2018-06-21T10:41:26.473Z,19.60
2018-06-21T10:43:54.639Z,19.70
2018-06-21T10:46:22.809Z,19.70
2018-06-21T10:48:50.976Z,19.70
2018-06-21T10:51:19.161Z,19.70
2018-06-21T10:53:47.469Z,19.70
2018-06-21T10:56:15.635Z,19.80
2018-06-21T10:58:43.790Z,19.80
2018-06-21T11:01:12.014Z,19.80
2018-06-21T11:03:40.160Z,19.80
2018-06-21T11:06:08.324Z,19.80
2018-06-21T11:08:36.558Z,19.70
2018-06-21T11:11:04.671Z,19.80
2018-06-21T11:13:32.807Z,19.80
2018-06-21T11:16:01.790Z,19.90
2018-06-21T11:18:29.970Z,19.90
2018-06-21T11:20:58.202Z,19.90
2018-06-21T11:23:26.417Z,20.00
2018-06-21T11:25:54.601Z,20.00
2018-06-21T11:28:22.785Z,20.00
2018-06-21T11:30:51.106Z,20.00
2018-06-21T11:33:19.274Z,20.00
2018-06-21T11:35:47.439Z,20.10
2018-06-21T11:38:15.666Z,20.10
2018-06-21T11:40:43.798Z,20.20
2018-06-21T11:43:11.978Z,20.20
2018-06-21T11:45:40.135Z,20.20
2018-06-21T11:48:08.310Z,20.30
2018-06-21T11:50:36.502Z,20.40
2018-06-21T11:53:04.941Z,20.40
2018-06-21T11:55:33.319Z,20.40
2018-06-21T11:58:01.582Z,20.40
2018-06-21T12:00:29.746Z,20.40
2018-06-21T12:02:57.934Z,20.40
2018-06-21T12:05:26.109Z,20.50
2018-06-21T12:07:54.286Z,20.60
2018-06-21T12:10:22.450Z,20.60
2018-06-21T12:12:50.634Z,20.60
2018-06-21T12:15:18.789Z,20.60
2018-06-21T12:17:46.949Z,20.60
2018-06-21T12:20:15.107Z,20.60
2018-06-21T12:22:43.270Z,20.60
2018-06-21T12:25:11.413Z,20.60
2018-06-21T12:27:39.569Z,20.70
2018-06-21T12:30:07.716Z,20.70
2018-06-21T12:32:35.871Z,20.70
2018-06-21T12:35:04.022Z,20.60
2018-06-21T12:37:32.173Z,20.60
2018-06-21T12:40:00.358Z,20.60
2018-06-21T12:42:28.546Z,20.60
2018-06-21T12:44:56.705Z,20.50
2018-06-21T12:47:24.857Z,20.40
2018-06-21T12:49:53.122Z,20.40
2018-06-21T12:52:21.348Z,20.30
2018-06-21T12:54:49.509Z,20.40
2018-06-21T12:57:17.717Z,20.40
2018-06-21T12:59:45.885Z,20.40
2018-06-21T13:02:14.062Z,20.50
2018-06-21T13:04:42.778Z,20.50
2018-06-21T13:07:10.946Z,20.50
2018-06-21T13:09:50.742Z,20.50
2018-06-21T13:12:31.778Z,20.50
2018-06-21T13:15:00.052Z,20.60
2018-06-21T13:17:29.278Z,20.60
2018-06-21T13:19:58.065Z,20.60
2018-06-21T13:22:26.790Z,20.60
2018-06-21T13:24:54.989Z,20.70
2018-06-21T13:27:23.325Z,20.70
2018-06-21T13:29:51.581Z,20.70
2018-06-21T13:32:20.153Z,20.80
2018-06-21T13:34:48.495Z,20.80
2018-06-21T13:37:16.734Z,20.80
2018-06-21T13:39:44.901Z,20.80
2018-06-21T13:44:41.244Z,20.80
2018-06-21T13:49:37.332Z,20.80
2018-06-21T13:52:05.506Z,20.70
2018-06-21T13:54:33.785Z,20.70
2018-06-21T13:57:01.984Z,20.70
2018-06-21T13:59:30.131Z,20.70
2018-06-21T14:01:58.301Z,20.70
2018-06-21T14:04:26.445Z,20.70
2018-06-21T14:06:54.601Z,20.80
2018-06-21T14:09:22.775Z,20.80
2018-06-21T14:11:50.918Z,20.90
2018-06-21T14:14:19.064Z,20.90
2018-06-21T14:16:47.221Z,20.90
2018-06-21T14:19:15.449Z,20.90
2018-06-21T14:21:43.653Z,20.90
2018-06-21T14:24:13.029Z,20.90
2018-06-21T14:26:41.662Z,20.90
2018-06-21T14:29:09.809Z,20.90
2018-06-21T14:34:06.010Z,20.80
2018-06-21T14:36:34.446Z,20.80
2018-06-21T14:39:03.431Z,20.80
2018-06-21T14:41:31.601Z,20.80
2018-06-21T14:43:59.750Z,20.70
2018-06-21T14:46:27.902Z,20.70
2018-06-21T14:48:56.543Z,20.70
2018-06-21T14:51:24.690Z,20.70
2018-06-21T14:53:52.870Z,20.70
2018-06-21T14:56:21.027Z,20.80
2018-06-21T14:58:49.190Z,20.80
2018-06-21T15:01:17.361Z,20.80
2018-06-21T15:03:45.529Z,20.70
2018-06-21T15:06:13.702Z,20.70
2018-06-21T15:08:41.869Z,20.70
2018-06-21T15:11:10.087Z,20.60
2018-06-21T15:13:38.216Z,20.50
2018-06-21T15:16:06.410Z,20.50
2018-06-21T15:18:34.576Z,20.40
2018-06-21T15:21:02.814Z,20.30
2018-06-21T15:23:31.012Z,20.30
2018-06-21T15:25:59.218Z,20.20
2018-06-21T15:28:27.377Z,20.10
2018-06-21T15:30:55.581Z,20.10
2018-06-21T15:35:51.681Z,20.00
2018-06-21T15:38:20.257Z,20.00
2018-06-21T15:40:48.454Z,20.00
2018-06-21T15:43:16.621Z,20.00
2018-06-21T15:45:44.792Z,20.00
2018-06-21T15:48:12.987Z,20.00
2018-06-21T15:50:41.245Z,20.10
2018-06-21T15:53:09.483Z,20.10
2018-06-21T15:55:37.693Z,20.10
2018-06-21T15:58:05.997Z,20.10
2018-06-21T16:00:34.174Z,20.10
2018-06-21T16:03:02.797Z,20.10
2018-06-21T16:05:30.986Z,20.10
2018-06-21T16:07:59.158Z,20.10
2018-06-21T16:10:27.341Z,20.10
2018-06-21T16:12:55.496Z,20.10
2018-06-21T16:15:23.725Z,20.10
2018-06-21T16:17:51.890Z,20.10
2018-06-21T16:20:20.083Z,20.10
2018-06-21T16:22:48.341Z,20.00
2018-06-21T16:25:16.465Z,20.00
2018-06-21T16:27:44.683Z,20.00
2018-06-21T16:30:12.872Z,19.90
2018-06-21T16:32:41.135Z,19.90
2018-06-21T16:35:09.305Z,19.80
2018-06-21T16:37:37.457Z,19.80
2018-06-21T16:40:05.709Z,19.80
2018-06-21T16:42:33.892Z,19.70
2018-06-21T16:45:02.127Z,19.70
2018-06-21T16:47:30.306Z,19.70
2018-06-21T16:49:58.498Z,19.70
2018-06-21T16:52:26.757Z,19.70
2018-06-21T16:54:54.950Z,19.70
2018-06-21T16:57:23.126Z,19.70
2018-06-21T16:59:51.278Z,19.70
2018-06-21T17:02:19.433Z,19.60
2018-06-21T17:04:47.595Z,19.60
2018-06-21T17:07:15.794Z,19.60
2018-06-21T17:09:43.981Z,19.50
2018-06-21T17:12:12.162Z,19.50
2018-06-21T17:14:40.331Z,19.50
2018-06-21T17:17:08.596Z,19.50
2018-06-21T17:19:36.686Z,19.50
2018-06-21T17:22:04.882Z,19.50
2018-06-21T17:24:33.090Z,19.40
2018-06-21T17:27:01.306Z,19.40
2018-06-21T17:29:29.506Z,19.40
2018-06-21T17:31:57.724Z,19.30
2018-06-21T17:34:25.951Z,19.30
2018-06-21T17:36:54.204Z,19.30
2018-06-21T17:39:22.348Z,19.30
2018-06-21T17:41:50.554Z,19.30
2018-06-21T17:44:18.741Z,19.20
2018-06-21T17:46:46.998Z,19.20
2018-06-21T17:49:15.282Z,19.20
2018-06-21T17:51:43.454Z,19.20
2018-06-21T17:54:11.637Z,19.10
2018-06-21T17:56:39.814Z,19.00
2018-06-21T17:59:09.047Z,19.00
2018-06-21T18:01:38.163Z,18.90
2018-06-21T18:04:06.574Z,18.90
2018-06-21T18:06:35.065Z,18.90
2018-06-21T18:09:05.519Z,18.90
2018-06-21T18:11:34.141Z,18.90
2018-06-21T18:14:03.936Z,18.80
2018-06-21T18:16:32.311Z,18.80
2018-06-21T18:19:00.890Z,18.70
2018-06-21T18:21:29.433Z,18.60
2018-06-21T18:23:59.262Z,18.60
2018-06-21T18:26:27.554Z,18.50
2018-06-21T18:28:56.194Z,18.50
2018-06-21T18:31:25.228Z,18.50
2018-06-21T18:33:53.820Z,18.50
2018-06-21T18:36:23.283Z,18.50
2018-06-21T18:38:51.949Z,18.40
2018-06-21T18:41:21.510Z,18.40
2018-06-21T18:43:50.739Z,18.40
2018-06-21T18:46:20.191Z,18.40
2018-06-21T18:48:48.655Z,18.30
2018-06-21T18:51:17.081Z,18.30
2018-06-21T18:53:45.959Z,18.30
2018-06-21T18:56:14.150Z,18.30
2018-06-21T18:58:42.788Z,18.30
2018-06-21T19:01:12.788Z,18.20
2018-06-21T19:03:41.445Z,18.20
2018-06-21T19:06:15.372Z,18.10
2018-06-21T19:08:49.822Z,18.10
2018-06-21T19:11:24.018Z,18.10
2018-06-21T19:13:53.050Z,18.10
2018-06-21T19:16:21.382Z,18.00
2018-06-21T19:18:50.290Z,18.00
2018-06-21T19:21:18.948Z,18.00
2018-06-21T19:23:48.037Z,17.90
2018-06-21T19:26:17.133Z,17.90
2018-06-21T19:28:45.889Z,17.80
2018-06-21T19:31:15.820Z,17.80
2018-06-21T19:33:44.697Z,17.70
2018-06-21T19:36:13.474Z,17.70
2018-06-21T19:38:42.099Z,17.60
2018-06-21T19:41:10.513Z,17.60
2018-06-21T19:43:38.858Z,17.50
2018-06-21T19:46:07.122Z,17.50
2018-06-21T19:48:36.521Z,17.40
2018-06-21T19:51:04.803Z,17.40
2018-06-21T19:53:33.162Z,17.30
2018-06-21T19:56:01.458Z,17.30
2018-06-21T19:58:29.713Z,17.20
2018-06-21T20:00:58.071Z,17.20
2018-06-21T20:03:26.306Z,17.10
2018-06-21T20:05:54.482Z,17.10
2018-06-21T20:08:22.658Z,17.00
2018-06-21T20:10:56.208Z,17.00
2018-06-21T20:13:24.398Z,17.00
2018-06-21T20:15:53.661Z,16.90
2018-06-21T20:18:22.193Z,16.90
2018-06-21T20:20:50.577Z,16.80
2018-06-21T20:23:19.908Z,16.80
2018-06-21T20:25:48.086Z,16.80
2018-06-21T20:28:16.555Z,16.80
2018-06-21T20:30:45.496Z,16.70
2018-06-21T20:33:13.769Z,16.70
2018-06-21T20:35:42.054Z,16.70
2018-06-21T20:38:10.288Z,16.70
2018-06-21T20:40:38.426Z,16.60
2018-06-21T20:43:06.601Z,16.60
2018-06-21T20:45:34.799Z,16.60
2018-06-21T20:48:02.970Z,16.60
2018-06-21T20:50:31.201Z,16.60
2018-06-21T20:52:59.362Z,16.50
2018-06-21T20:55:27.583Z,16.50
2018-06-21T20:57:55.769Z,16.50
2018-06-21T21:00:23.941Z,16.50
2018-06-21T21:02:52.115Z,16.40
2018-06-21T21:05:20.389Z,16.40
2018-06-21T21:07:49.811Z,16.40
2018-06-21T21:10:18.789Z,16.40
2018-06-21T21:12:47.009Z,16.40
2018-06-21T21:15:15.612Z,16.40
2018-06-21T21:17:43.797Z,16.30
2018-06-21T21:20:11.970Z,16.30
2018-06-21T21:22:40.853Z,16.30
2018-06-21T21:25:09.063Z,16.20
2018-06-21T21:27:37.234Z,16.20
2018-06-21T21:30:06.778Z,16.20
2018-06-21T21:32:35.090Z,16.20
2018-06-21T21:35:03.294Z,16.20
2018-06-21T21:37:31.477Z,16.20
2018-06-21T21:40:03.075Z,16.10
2018-06-21T21:42:32.277Z,16.10
2018-06-21T21:45:00.478Z,16.10
2018-06-21T21:47:28.779Z,16.10
2018-06-21T21:49:57.082Z,16.10
2018-06-21T21:52:25.345Z,16.10
2018-06-21T21:54:53.524Z,16.10
2018-06-21T21:57:21.705Z,16.00
2018-06-21T21:59:50.308Z,16.00
2018-06-21T22:02:18.802Z,16.00
2018-06-21T22:04:47.282Z,15.90
2018-06-21T22:07:15.601Z,15.90
2018-06-21T22:09:44.226Z,15.90
2018-06-21T22:12:12.406Z,15.90
2018-06-21T22:14:40.585Z,15.90
2018-06-21T22:17:08.802Z,15.90
2018-06-21T22:19:36.982Z,15.80
2018-06-21T22:22:05.232Z,15.80
2018-06-21T22:24:33.401Z,15.80
2018-06-21T22:27:01.587Z,15.80
2018-06-21T22:29:29.982Z,15.80
2018-06-21T22:31:58.150Z,15.80
2018-06-21T22:34:26.321Z,15.80
2018-06-21T22:36:54.506Z,15.80
2018-06-21T22:39:22.798Z,15.80
2018-06-21T22:41:50.977Z,15.80
2018-06-21T22:44:19.145Z,15.80
2018-06-21T22:46:47.337Z,15.80
2018-06-21T22:49:15.513Z,15.80
2018-06-21T22:51:43.689Z,15.80
2018-06-21T22:54:11.862Z,15.80
2018-06-21T22:56:40.061Z,15.80
2018-06-21T22:59:08.233Z,15.80
2018-06-21T23:01:36.434Z,15.80
2018-06-21T23:04:04.606Z,15.80
2018-06-21T23:06:32.797Z,15.80
2018-06-21T23:09:00.973Z,15.80
2018-06-21T23:11:29.215Z,15.70
2018-06-21T23:13:57.362Z,15.80
2018-06-21T23:16:25.533Z,15.70
2018-06-21T23:19:04.949Z,15.80
2018-06-21T23:21:33.125Z,15.80
2018-06-21T23:24:01.303Z,15.80
2018-06-21T23:26:29.482Z,15.80
2018-06-21T23:28:57.666Z,15.70
2018-06-21T23:31:25.867Z,15.80
2018-06-21T23:33:54.058Z,15.70
2018-06-21T23:36:22.242Z,15.70
2018-06-21T23:38:50.418Z,15.70
2018-06-21T23:41:18.606Z,15.70
2018-06-21T23:43:46.773Z,15.70
2018-06-21T23:46:14.946Z,15.70
2018-06-21T23:48:43.138Z,15.60
2018-06-21T23:51:11.281Z,15.60
2018-06-21T23:53:39.446Z,15.60
2018-06-21T23:56:07.618Z,15.60
2018-06-21T23:58:35.801Z,15.60
